createdAt,value
2022-09-15T00:02:24.349Z,99457.19
2022-09-15T00:04:50.765Z,99463.69
2022-09-15T00:07:17.343Z,99462.00
2022-09-15T00:09:43.632Z,99469.31
2022-09-15T00:12:10.007Z,99470.13
2022-09-15T00:14:36.335Z,99472.44
2022-09-15T00:17:02.723Z,99463.66
2022-09-15T00:19:29.257Z,99461.13
2022-09-15T00:21:55.560Z,99466.56
2022-09-15T00:24:21.874Z,99464.91
2022-09-15T00:26:48.186Z,99459.47
2022-09-15T00:29:14.474Z,99455.72
2022-09-15T00:31:40.806Z,99448.41
2022-09-15T00:34:07.319Z,99447.81
2022-09-15T00:36:33.932Z,99446.13
2022-09-15T00:39:00.246Z,99451.56
2022-09-15T00:41:26.641Z,99455.31
2022-09-15T00:44:01.789Z,99458.84
2022-09-15T00:46:31.715Z,99449.88
2022-09-15T00:49:09.260Z,99451.16
2022-09-15T00:51:42.896Z,99456.34
2022-09-15T00:54:16.013Z,99446.56
2022-09-15T00:56:44.228Z,99441.13
2022-09-15T00:59:16.861Z,99448.22
2022-09-15T01:01:46.019Z,99439.25
2022-09-15T01:04:14.631Z,99446.13
2022-09-15T01:06:46.730Z,99441.97
2022-09-15T01:09:24.894Z,99444.25
2022-09-15T01:11:51.563Z,99446.97
2022-09-15T01:14:17.865Z,99440.72
2022-09-15T01:17:03.772Z,99442.16
2022-09-15T01:20:02.905Z,99438.00
2022-09-15T01:23:03.150Z,99443.63
2022-09-15T01:26:17.709Z,99442.38
2022-09-15T01:29:21.884Z,99429.88
2022-09-15T01:32:16.479Z,99436.13
2022-09-15T01:34:55.815Z,99436.13
2022-09-15T01:37:30.130Z,99434.47
2022-09-15T01:40:00.581Z,99437.38
2022-09-15T01:42:27.871Z,99433.63
2022-09-15T01:45:07.497Z,99431.34
2022-09-15T01:47:35.247Z,99434.03
2022-09-15T01:50:08.911Z,99433.19
2022-09-15T01:52:36.742Z,99434.03
2022-09-15T01:55:11.545Z,99425.91
2022-09-15T01:57:37.893Z,99425.06
2022-09-15T02:00:05.841Z,99424.69
2022-09-15T02:02:38.067Z,99429.06
2022-09-15T02:05:20.659Z,99431.13
2022-09-15T02:08:09.672Z,99428.84
2022-09-15T02:10:49.591Z,99424.88
2022-09-15T02:13:22.491Z,99428.00
2022-09-15T02:15:56.738Z,99421.13
2022-09-15T02:18:45.838Z,99435.31
2022-09-15T02:21:18.808Z,99435.53
2022-09-15T02:23:57.016Z,99439.94
2022-09-15T02:26:29.018Z,99436.59
2022-09-15T02:28:59.883Z,99442.22
2022-09-15T02:31:27.729Z,99441.56
2022-09-15T02:33:59.065Z,99439.25
2022-09-15T02:36:32.999Z,99442.19
2022-09-15T02:39:04.852Z,99445.50
2022-09-15T02:41:33.781Z,99440.28
2022-09-15T02:44:00.087Z,99443.84
2022-09-15T02:46:26.503Z,99441.13
2022-09-15T02:48:53.493Z,99440.28
2022-09-15T02:51:20.200Z,99438.59
2022-09-15T02:53:46.545Z,99443.00
2022-09-15T02:56:13.511Z,99451.53
2022-09-15T02:58:39.803Z,99451.75
2022-09-15T03:01:07.707Z,99453.63
2022-09-15T03:03:34.828Z,99454.03
2022-09-15T03:06:18.597Z,99453.63
2022-09-15T03:08:49.589Z,99461.78
2022-09-15T03:11:17.723Z,99461.16
2022-09-15T03:13:44.067Z,99467.38
2022-09-15T03:16:12.136Z,99466.09
2022-09-15T03:18:39.427Z,99476.34
2022-09-15T03:21:09.342Z,99472.56
2022-09-15T03:23:36.392Z,99480.06
2022-09-15T03:26:02.885Z,99483.84
2022-09-15T03:28:29.667Z,99478.22
2022-09-15T03:30:56.043Z,99480.31
2022-09-15T03:33:23.324Z,99485.31
2022-09-15T03:35:51.136Z,99485.72
2022-09-15T03:38:17.771Z,99492.00
2022-09-15T03:40:44.452Z,99495.34
2022-09-15T03:43:15.455Z,99504.13
2022-09-15T03:45:44.931Z,99501.81
2022-09-15T03:48:11.303Z,99502.19
2022-09-15T03:50:37.624Z,99508.63
2022-09-15T03:53:03.957Z,99510.72
2022-09-15T03:55:30.286Z,99509.25
2022-09-15T03:57:56.593Z,99502.69
2022-09-15T04:00:22.891Z,99503.94
2022-09-15T04:02:49.249Z,99509.78
2022-09-15T04:05:15.799Z,99504.16
2022-09-15T04:07:42.193Z,99515.19
2022-09-15T04:10:09.480Z,99519.53
2022-09-15T04:12:36.300Z,99519.72
2022-09-15T04:15:03.970Z,99523.47
2022-09-15T04:17:31.081Z,99529.09
2022-09-15T04:19:57.741Z,99528.19
2022-09-15T04:22:26.378Z,99529.03
2022-09-15T04:24:52.911Z,99524.66
2022-09-15T04:27:19.284Z,99520.06
2022-09-15T04:29:46.039Z,99529.22
2022-09-15T04:32:12.377Z,99536.72
2022-09-15T04:34:41.418Z,99533.59
2022-09-15T04:37:07.937Z,99541.31
2022-09-15T04:39:34.314Z,99544.59
2022-09-15T04:42:01.017Z,99537.72
2022-09-15T04:44:27.303Z,99556.63
2022-09-15T04:46:54.280Z,99553.63
2022-09-15T04:49:20.666Z,99556.91
2022-09-15T04:51:47.098Z,99560.16
2022-09-15T04:54:13.559Z,99559.47
2022-09-15T04:56:39.877Z,99565.09
2022-09-15T04:59:06.265Z,99573.00
2022-09-15T05:01:35.145Z,99572.31
2022-09-15T05:04:05.817Z,99571.25
2022-09-15T05:06:32.792Z,99578.63
2022-09-15T05:08:59.384Z,99582.19
2022-09-15T05:11:26.983Z,99583.56
2022-09-15T05:13:53.887Z,99582.38
2022-09-15T05:16:23.648Z,99586.75
2022-09-15T05:18:51.523Z,99589.31
2022-09-15T05:21:20.162Z,99589.94
2022-09-15T05:23:47.300Z,99594.78
2022-09-15T05:26:16.500Z,99595.75
2022-09-15T05:28:43.165Z,99607.41
2022-09-15T05:31:11.911Z,99604.69
2022-09-15T05:33:38.652Z,99601.34
2022-09-15T05:36:05.989Z,99613.09
2022-09-15T05:38:32.526Z,99617.66
2022-09-15T05:41:03.927Z,99616.00
2022-09-15T05:43:32.548Z,99623.06
2022-09-15T05:45:58.923Z,99624.59
2022-09-15T05:48:26.655Z,99628.97
2022-09-15T05:50:54.702Z,99631.66
2022-09-15T05:53:22.787Z,99641.19
2022-09-15T05:55:53.947Z,99632.34
2022-09-15T05:58:20.220Z,99625.53
2022-09-15T06:00:46.552Z,99635.59
2022-09-15T06:03:15.377Z,99637.97
2022-09-15T06:05:42.268Z,99639.44
2022-09-15T06:08:09.473Z,99648.13
2022-09-15T06:10:36.323Z,99641.81
2022-09-15T06:13:02.779Z,99645.81
2022-09-15T06:15:29.077Z,99639.41
2022-09-15T06:17:55.365Z,99632.13
2022-09-15T06:20:22.281Z,99649.84
2022-09-15T06:22:48.872Z,99651.41
2022-09-15T06:25:15.384Z,99655.22
2022-09-15T06:27:41.986Z,99662.50
2022-09-15T06:30:09.898Z,99661.69
2022-09-15T06:32:36.739Z,99667.53
2022-09-15T06:35:07.074Z,99651.94
2022-09-15T06:37:34.521Z,99659.59
2022-09-15T06:40:01.795Z,99658.81
2022-09-15T06:42:28.285Z,99659.75
2022-09-15T06:44:54.580Z,99678.03
2022-09-15T06:47:21.104Z,99661.72
2022-09-15T06:49:47.390Z,99678.31
2022-09-15T06:52:13.740Z,99674.31
2022-09-15T06:54:40.120Z,99675.59
2022-09-15T06:57:06.397Z,99677.63
2022-09-15T06:59:32.673Z,99693.41
2022-09-15T07:02:04.091Z,99694.25
2022-09-15T07:04:37.137Z,99690.59
2022-09-15T07:07:03.521Z,99688.72
2022-09-15T07:09:29.857Z,99700.31
2022-09-15T07:11:56.195Z,99696.22
2022-09-15T07:14:22.503Z,99698.44
2022-09-15T07:16:48.921Z,99700.97
2022-09-15T07:19:15.413Z,99706.66
2022-09-15T07:21:41.723Z,99714.13
2022-09-15T07:24:10.276Z,99716.53
2022-09-15T07:26:37.763Z,99718.69
2022-09-15T07:29:06.646Z,99719.50
2022-09-15T07:31:35.634Z,99717.44
2022-09-15T07:34:02.339Z,99725.66
2022-09-15T07:36:29.860Z,99729.09
2022-09-15T07:38:56.750Z,99729.09
2022-09-15T07:41:25.539Z,99726.22
2022-09-15T07:43:54.261Z,99736.38
2022-09-15T07:46:22.215Z,99731.63
2022-09-15T07:48:53.323Z,99742.63
2022-09-15T07:51:20.056Z,99745.63
2022-09-15T07:53:47.967Z,99750.84
2022-09-15T07:56:16.033Z,99742.06
2022-09-15T07:58:42.313Z,99754.19
2022-09-15T08:01:14.674Z,99754.81
2022-09-15T08:03:42.670Z,99757.16
2022-09-15T08:06:09.903Z,99757.34
2022-09-15T08:08:38.684Z,99759.81
2022-09-15T08:11:07.268Z,99756.50
2022-09-15T08:13:33.692Z,99757.03
2022-09-15T08:16:12.347Z,99766.34
2022-09-15T08:18:42.232Z,99771.56
2022-09-15T08:21:13.468Z,99770.94
2022-09-15T08:23:40.161Z,99777.72
2022-09-15T08:26:13.068Z,99780.84
2022-09-15T08:28:40.528Z,99779.69
2022-09-15T08:31:13.755Z,99786.00
2022-09-15T08:33:44.786Z,99789.97
2022-09-15T08:36:12.692Z,99797.13
2022-09-15T08:38:46.873Z,99803.19
2022-09-15T08:41:29.746Z,99799.19
2022-09-15T08:44:00.868Z,99807.63
2022-09-15T08:46:54.006Z,99808.53
2022-09-15T08:49:50.598Z,99808.97
2022-09-15T08:52:38.051Z,99797.50
2022-09-15T08:55:12.844Z,99805.53
2022-09-15T08:57:39.291Z,99806.78
2022-09-15T09:00:25.219Z,99805.56
2022-09-15T09:03:14.411Z,99807.91
2022-09-15T09:05:53.480Z,99810.69
2022-09-15T09:08:34.705Z,99811.78
2022-09-15T09:11:16.080Z,99808.66
2022-09-15T09:13:52.902Z,99823.06
2022-09-15T09:16:32.143Z,99812.63
2022-09-15T09:19:33.595Z,99814.66
2022-09-15T09:22:05.390Z,99814.28
2022-09-15T09:24:42.425Z,99817.94
2022-09-15T09:27:18.940Z,99812.81
2022-09-15T09:29:51.230Z,99815.75
2022-09-15T09:32:38.577Z,99818.16
2022-09-15T09:35:34.442Z,99818.56
2022-09-15T09:38:02.334Z,99822.84
2022-09-15T09:40:31.426Z,99826.00
2022-09-15T09:42:57.906Z,99819.00
2022-09-15T09:45:24.216Z,99822.53
2022-09-15T09:47:50.572Z,99832.88
2022-09-15T09:50:35.959Z,99836.22
2022-09-15T09:53:17.788Z,99834.59
2022-09-15T09:55:45.814Z,99828.28
2022-09-15T09:58:17.872Z,99824.53
2022-09-15T10:00:44.583Z,99826.00
2022-09-15T10:03:28.002Z,99827.13
2022-09-15T10:06:18.715Z,99827.97
2022-09-15T10:08:53.256Z,99820.50
2022-09-15T10:11:19.635Z,99812.94
2022-09-15T10:13:54.997Z,99820.44
2022-09-15T10:16:22.359Z,99827.22
2022-09-15T10:18:54.227Z,99821.19
2022-09-15T10:21:24.509Z,99820.78
2022-09-15T10:23:50.844Z,99813.31
2022-09-15T10:26:31.972Z,99817.06
2022-09-15T10:29:16.924Z,99820.22
2022-09-15T10:31:44.684Z,99817.50
2022-09-15T10:34:31.597Z,99826.06
2022-09-15T10:37:16.900Z,99809.97
2022-09-15T10:39:54.995Z,99824.44
2022-09-15T10:42:44.361Z,99831.94
2022-09-15T10:45:18.628Z,99826.72
2022-09-15T10:48:02.850Z,99824.81
2022-09-15T10:50:36.440Z,99821.25
2022-09-15T10:53:27.670Z,99822.22
2022-09-15T10:55:56.867Z,99822.59
2022-09-15T10:58:32.278Z,99817.31
2022-09-15T11:01:27.916Z,99818.66
2022-09-15T11:04:22.747Z,99816.69
2022-09-15T11:07:03.049Z,99815.16
2022-09-15T11:09:32.097Z,99811.56
2022-09-15T11:12:17.183Z,99823.09
2022-09-15T11:14:55.682Z,99814.56
2022-09-15T11:17:37.401Z,99824.78
2022-09-15T11:20:15.110Z,99820.81
2022-09-15T11:22:49.664Z,99824.56
2022-09-15T11:25:23.184Z,99833.44
2022-09-15T11:28:00.516Z,99834.09
2022-09-15T11:30:35.797Z,99829.97
2022-09-15T11:33:27.752Z,99842.34
2022-09-15T11:36:07.388Z,99838.16
2022-09-15T11:38:53.431Z,99845.25
2022-09-15T11:41:30.981Z,99855.78
2022-09-15T11:44:16.125Z,99856.16
2022-09-15T11:46:57.420Z,99848.63
2022-09-15T11:49:31.021Z,99854.50
2022-09-15T11:52:14.502Z,99849.44
2022-09-15T11:54:56.694Z,99837.09
2022-09-15T11:57:34.152Z,99840.59
2022-09-15T12:00:12.301Z,99853.16
2022-09-15T12:03:16.625Z,99846.47
2022-09-15T12:05:50.788Z,99850.84
2022-09-15T12:08:20.843Z,99848.25
2022-09-15T12:10:52.295Z,99848.25
2022-09-15T12:13:21.777Z,99851.72
2022-09-15T12:15:49.586Z,99847.75
2022-09-15T12:18:38.138Z,99845.59
2022-09-15T12:21:23.768Z,99837.13
2022-09-15T12:23:56.064Z,99840.84
2022-09-15T12:26:25.090Z,99842.69
2022-09-15T12:28:51.942Z,99839.25
2022-09-15T12:31:39.191Z,99840.41
2022-09-15T12:34:25.451Z,99839.84
2022-09-15T12:37:07.135Z,99852.09
2022-09-15T12:39:41.935Z,99852.06
2022-09-15T12:42:24.650Z,99856.69
2022-09-15T12:44:53.144Z,99862.06
2022-09-15T12:47:21.633Z,99857.06
2022-09-15T12:49:51.168Z,99858.03
2022-09-15T12:52:20.375Z,99860.28
2022-09-15T12:55:00.668Z,99870.38
2022-09-15T12:57:37.827Z,99873.19
2022-09-15T13:00:42.331Z,99876.31
2022-09-15T13:03:50.728Z,99870.91
2022-09-15T13:06:30.320Z,99881.66
2022-09-15T13:09:02.286Z,99870.84
2022-09-15T13:11:36.709Z,99871.56
2022-09-15T13:14:13.725Z,99872.19
2022-09-15T13:16:40.030Z,99880.81
2022-09-15T13:19:41.724Z,99876.19
2022-09-15T13:22:10.902Z,99885.81
2022-09-15T13:24:48.426Z,99881.59
2022-09-15T13:27:19.570Z,99880.34
2022-09-15T13:29:50.689Z,99878.00
2022-09-15T13:32:40.966Z,99885.72
2022-09-15T13:35:22.397Z,99876.94
2022-09-15T13:38:13.560Z,99879.03
2022-09-15T13:40:52.434Z,99874.19
2022-09-15T13:43:43.539Z,99867.69
2022-09-15T13:46:38.883Z,99869.34
2022-09-15T13:49:29.649Z,99874.44
2022-09-15T13:52:07.316Z,99863.91
2022-09-15T13:54:33.631Z,99866.22
2022-09-15T13:57:01.857Z,99868.72
2022-09-15T13:59:30.985Z,99875.28
2022-09-15T14:01:58.933Z,99869.44
2022-09-15T14:04:31.123Z,99874.19
2022-09-15T14:07:01.908Z,99877.38
2022-09-15T14:09:57.603Z,99870.41
2022-09-15T14:12:24.001Z,99872.53
2022-09-15T14:14:53.933Z,99877.53
2022-09-15T14:17:28.710Z,99866.41
2022-09-15T14:19:57.328Z,99873.97
2022-09-15T14:22:29.520Z,99865.19
2022-09-15T14:24:57.505Z,99868.97
2022-09-15T14:27:27.388Z,99861.50
2022-09-15T14:30:00.421Z,99852.59
2022-09-15T14:32:28.692Z,99862.00
2022-09-15T14:34:59.527Z,99859.06
2022-09-15T14:37:32.089Z,99860.09
2022-09-15T14:40:00.954Z,99864.69
2022-09-15T14:42:35.321Z,99859.13
2022-09-15T14:48:02.200Z,99858.47
2022-09-15T14:50:32.824Z,99855.59
2022-09-15T14:53:05.522Z,99854.97
2022-09-15T14:55:43.300Z,99859.34
2022-09-15T14:58:30.713Z,99862.09
2022-09-15T15:01:23.070Z,99853.97
2022-09-15T15:04:09.992Z,99853.16
2022-09-15T15:06:54.079Z,99846.97
2022-09-15T15:09:29.820Z,99853.44
2022-09-15T15:12:00.459Z,99855.47
2022-09-15T15:14:27.478Z,99848.13
2022-09-15T15:17:00.051Z,99849.34
2022-09-15T15:20:12.684Z,99858.16
2022-09-15T15:22:41.445Z,99855.09
2022-09-15T15:25:28.919Z,99865.53
2022-09-15T15:27:59.462Z,99865.34
2022-09-15T15:30:36.614Z,99859.09
2022-09-15T15:33:27.294Z,99855.97
2022-09-15T15:36:08.119Z,99861.81
2022-09-15T15:38:50.337Z,99863.09
2022-09-15T15:41:22.419Z,99867.69
2022-09-15T15:43:59.680Z,99864.56
2022-09-15T15:46:53.340Z,99867.06
2022-09-15T15:49:21.215Z,99870.00
2022-09-15T15:51:47.771Z,99874.59
2022-09-15T15:54:14.436Z,99868.75
2022-09-15T15:56:40.852Z,99871.69
2022-09-15T15:59:09.180Z,99867.91
2022-09-15T16:01:35.519Z,99876.06
2022-09-15T16:04:01.981Z,99866.84
2022-09-15T16:06:28.405Z,99865.00
2022-09-15T16:08:58.033Z,99871.69
2022-09-15T16:11:24.489Z,99867.50
2022-09-15T16:13:50.823Z,99870.22
2022-09-15T16:16:22.644Z,99868.75
2022-09-15T16:18:49.439Z,99859.13
2022-09-15T16:21:22.172Z,99867.69
2022-09-15T16:23:48.614Z,99871.91
2022-09-15T16:26:20.583Z,99877.34
2022-09-15T16:28:46.908Z,99877.31
2022-09-15T16:31:14.662Z,99874.16
2022-09-15T16:33:42.696Z,99879.41
2022-09-15T16:36:13.790Z,99886.03
2022-09-15T16:38:40.959Z,99884.22
2022-09-15T16:41:16.100Z,99873.28
2022-09-15T16:43:43.190Z,99882.47
2022-09-15T16:46:14.009Z,99876.63
2022-09-15T16:48:42.592Z,99881.25
2022-09-15T16:51:31.633Z,99887.91
2022-09-15T16:53:58.667Z,99887.72
2022-09-15T16:56:25.207Z,99890.00
2022-09-15T16:58:59.575Z,99888.13
2022-09-15T17:01:26.788Z,99881.38
2022-09-15T17:03:53.083Z,99880.97
2022-09-15T17:06:19.428Z,99887.44
2022-09-15T17:08:46.064Z,99879.69
2022-09-15T17:11:16.625Z,99884.66
2022-09-15T17:13:44.000Z,99886.16
2022-09-15T17:16:12.324Z,99889.94
2022-09-15T17:18:38.669Z,99885.13
2022-09-15T17:21:05.094Z,99884.63
2022-09-15T17:23:35.346Z,99879.88
2022-09-15T17:26:04.945Z,99891.19
2022-09-15T17:28:33.268Z,99898.25
2022-09-15T17:31:05.232Z,99895.50
2022-09-15T17:33:32.703Z,99889.22
2022-09-15T17:36:00.323Z,99892.09
2022-09-15T17:38:27.395Z,99892.28
2022-09-15T17:40:55.226Z,99898.97
2022-09-15T17:43:24.303Z,99897.03
2022-09-15T17:45:51.653Z,99896.41
2022-09-15T17:48:18.060Z,99899.53
2022-09-15T17:50:45.488Z,99896.84
2022-09-15T17:53:14.868Z,99896.78
2022-09-15T17:55:41.296Z,99894.66
2022-09-15T17:58:08.602Z,99902.34
2022-09-15T18:00:37.731Z,99899.56
2022-09-15T18:03:28.720Z,99900.66
2022-09-15T18:05:58.190Z,99905.00
2022-09-15T18:08:25.204Z,99902.50
2022-09-15T18:10:51.639Z,99903.09
2022-09-15T18:13:22.061Z,99907.69
2022-09-15T18:15:48.917Z,99908.72
2022-09-15T18:18:19.698Z,99918.72
2022-09-15T18:20:46.501Z,99921.06
2022-09-15T18:23:15.068Z,99916.13
2022-09-15T18:25:42.316Z,99919.34
2022-09-15T18:28:09.180Z,99927.59
2022-09-15T18:30:40.467Z,99938.47
2022-09-15T18:33:22.134Z,99935.75
2022-09-15T18:35:51.431Z,99938.66
2022-09-15T18:38:17.859Z,99935.75
2022-09-15T18:40:55.823Z,99942.41
2022-09-15T18:43:24.963Z,99954.13
2022-09-15T18:45:53.065Z,99956.91
2022-09-15T18:48:19.483Z,99961.31
2022-09-15T18:50:45.845Z,99964.44
2022-09-15T18:53:12.952Z,99978.81
2022-09-15T18:55:42.506Z,99985.84
2022-09-15T18:58:10.104Z,99985.94
2022-09-15T19:00:36.546Z,99987.09
2022-09-15T19:03:05.475Z,99989.47
2022-09-15T19:05:32.544Z,99980.34
2022-09-15T19:07:58.907Z,100002.44
2022-09-15T19:10:26.738Z,99992.88
2022-09-15T19:12:53.681Z,99999.13
2022-09-15T19:15:23.700Z,99994.97
2022-09-15T19:17:50.221Z,99989.84
2022-09-15T19:20:17.383Z,99987.38
2022-09-15T19:22:43.752Z,99992.44
2022-09-15T19:25:11.292Z,99994.78
2022-09-15T19:27:39.391Z,99992.78
2022-09-15T19:30:09.734Z,99993.75
2022-09-15T19:32:36.843Z,100001.63
2022-09-15T19:35:03.327Z,99997.31
2022-09-15T19:37:29.657Z,99993.69
2022-09-15T19:39:56.188Z,99999.84
2022-09-15T19:42:22.639Z,100000.97
2022-09-15T19:44:49.456Z,99989.34
2022-09-15T19:47:16.195Z,99985.56
2022-09-15T19:49:42.817Z,99989.84
2022-09-15T19:52:09.195Z,99993.06
2022-09-15T19:54:35.653Z,99996.84
2022-09-15T19:57:02.120Z,100003.25
2022-09-15T19:59:31.619Z,100005.16
2022-09-15T20:01:59.001Z,100009.66
2022-09-15T20:04:25.816Z,100007.25
2022-09-15T20:06:52.237Z,100015.25
2022-09-15T20:09:18.746Z,100019.75
2022-09-15T20:11:45.111Z,100018.47
2022-09-15T20:14:11.862Z,100019.84
2022-09-15T20:16:38.286Z,100020.50
2022-09-15T20:19:04.972Z,100017.22
2022-09-15T20:21:50.767Z,100007.44
2022-09-15T20:24:19.059Z,100012.41
2022-09-15T20:26:45.411Z,100011.91
2022-09-15T20:29:12.490Z,100011.63
2022-09-15T20:31:39.240Z,100016.28
2022-09-15T20:34:05.594Z,100013.41
2022-09-15T20:36:35.400Z,100018.38
2022-09-15T20:39:03.282Z,100013.13
2022-09-15T20:41:31.712Z,100009.50
2022-09-15T20:43:58.252Z,100022.38
2022-09-15T20:46:25.142Z,100024.63
2022-09-15T20:48:52.392Z,100026.88
2022-09-15T20:51:22.687Z,100021.63
2022-09-15T20:53:51.388Z,100031.69
2022-09-15T20:56:21.028Z,100029.19
2022-09-15T20:58:47.723Z,100031.50
2022-09-15T21:01:19.279Z,100036.91
2022-09-15T21:03:46.056Z,100039.25
2022-09-15T21:06:15.768Z,100028.94
2022-09-15T21:08:42.445Z,100034.78
2022-09-15T21:11:14.533Z,100038.31
2022-09-15T21:13:42.154Z,100038.03
2022-09-15T21:16:11.065Z,100031.88
2022-09-15T21:18:39.735Z,100041.94
2022-09-15T21:21:36.635Z,100041.53
2022-09-15T21:24:08.323Z,100043.81
2022-09-15T21:26:58.532Z,100045.03
2022-09-15T21:29:26.282Z,100048.84
2022-09-15T21:31:52.879Z,100054.25
2022-09-15T21:34:19.596Z,100050.53
2022-09-15T21:36:46.031Z,100057.44
2022-09-15T21:39:12.337Z,100055.28
2022-09-15T21:41:38.679Z,100055.84
2022-09-15T21:44:05.116Z,100058.47
2022-09-15T21:46:31.834Z,100054.25
2022-09-15T21:48:59.898Z,100059.81
2022-09-15T21:51:28.348Z,100062.53
2022-09-15T21:53:56.348Z,100057.75
2022-09-15T21:56:24.014Z,100068.63
2022-09-15T21:58:50.368Z,100064.47
2022-09-15T22:01:19.498Z,100072.41
2022-09-15T22:03:50.884Z,100070.06
2022-09-15T22:06:19.248Z,100069.75
2022-09-15T22:08:46.635Z,100063.72
2022-09-15T22:11:13.176Z,100068.59
2022-09-15T22:13:41.812Z,100068.47
2022-09-15T22:16:12.490Z,100067.50
2022-09-15T22:18:40.661Z,100071.88
2022-09-15T22:21:13.806Z,100072.91
2022-09-15T22:23:41.092Z,100077.00
2022-09-15T22:26:13.261Z,100069.22
2022-09-15T22:28:39.723Z,100066.19
2022-09-15T22:31:09.073Z,100070.00
2022-09-15T22:33:35.772Z,100069.53
2022-09-15T22:36:02.826Z,100066.84
2022-09-15T22:38:30.348Z,100070.38
2022-09-15T22:41:02.352Z,100070.69
2022-09-15T22:43:28.704Z,100061.72
2022-09-15T22:45:55.075Z,100063.63
2022-09-15T22:48:21.404Z,100071.41
2022-09-15T22:50:47.704Z,100068.28
2022-09-15T22:53:14.479Z,100067.75
2022-09-15T22:55:41.004Z,100070.38
2022-09-15T22:58:07.770Z,100068.94
2022-09-15T23:00:36.746Z,100066.72
2022-09-15T23:03:03.208Z,100061.84
2022-09-15T23:05:29.513Z,100071.66
2022-09-15T23:07:55.868Z,100070.94
2022-09-15T23:10:22.674Z,100074.88
2022-09-15T23:12:49.089Z,100065.72
2022-09-15T23:15:15.476Z,100072.66
2022-09-15T23:17:41.798Z,100074.03
2022-09-15T23:20:09.327Z,100071.31
2022-09-15T23:22:35.641Z,100078.78
2022-09-15T23:25:01.994Z,100072.72
2022-09-15T23:27:28.338Z,100068.66
2022-09-15T23:29:54.662Z,100077.84
2022-09-15T23:32:20.986Z,100077.28
2022-09-15T23:34:47.299Z,100072.44
2022-09-15T23:37:13.606Z,100071.28
2022-09-15T23:39:40.267Z,100066.56
2022-09-15T23:42:07.111Z,100074.41
2022-09-15T23:44:33.426Z,100080.13
2022-09-15T23:46:59.828Z,100075.75
2022-09-15T23:49:26.230Z,100076.53
2022-09-15T23:51:52.526Z,100078.78
2022-09-15T23:54:18.918Z,100079.47
2022-09-15T23:56:45.353Z,100077.69
2022-09-15T23:59:11.670Z,100073.97
